Alba, Missouri
Current Conditions -  °F | °C
As of 5:18 AM on Sunday 21 Dec 2014 (Local Time) from KJLN Reporting Station
Overcast Overcast  
Wind Chill: 37°   Ceiling: 1300
Heat Index: 43°   Visibility: 9mi
Dew Point: 39°   Wind: 10mph
Humidity: 86%   Direction: 170°S
Pressure: 30.09"   Gusts: NA
Location:  37.24°N, 94.42°W
Report Text: KJLN 211118Z AUTO 17009KT 9SM BKN013 OVC020 06/04 A3009 RMK AO2 T00610039 $
Loading
Personal Weather Stations






























Interactive Weather Map New forecast layout! Learn more

10-Day Weather Forecast

Advertisements
Track Severe Weather on mobile